sensor_id;sensor_type;location;lat;lon;timestamp;temperature;humidity
59234;DHT22;60776;51.702;7.462;2023-07-13T00:00:26;20.70;99.90
59234;DHT22;60776;51.702;7.462;2023-07-13T00:02:52;20.70;99.90
59234;DHT22;60776;51.702;7.462;2023-07-13T00:05:20;20.70;99.90
59234;DHT22;60776;51.702;7.462;2023-07-13T00:07:49;20.80;99.90
59234;DHT22;60776;51.702;7.462;2023-07-13T00:10:15;20.80;99.90
59234;DHT22;60776;51.702;7.462;2023-07-13T00:12:41;20.90;99.90
59234;DHT22;60776;51.702;7.462;2023-07-13T00:15:13;20.90;99.90
59234;DHT22;60776;51.702;7.462;2023-07-13T00:17:39;20.90;99.90
59234;DHT22;60776;51.702;7.462;2023-07-13T00:20:05;20.90;99.90
59234;DHT22;60776;51.702;7.462;2023-07-13T00:22:32;20.80;99.90
59234;DHT22;60776;51.702;7.462;2023-07-13T00:24:58;20.80;99.90
59234;DHT22;60776;51.702;7.462;2023-07-13T00:27:24;20.80;99.90
59234;DHT22;60776;51.702;7.462;2023-07-13T00:29:52;20.80;99.90
59234;DHT22;60776;51.702;7.462;2023-07-13T00:32:18;20.80;99.90
59234;DHT22;60776;51.702;7.462;2023-07-13T00:34:44;20.70;99.90
59234;DHT22;60776;51.702;7.462;2023-07-13T00:37:10;20.70;99.90
59234;DHT22;60776;51.702;7.462;2023-07-13T00:39:36;20.50;99.90
59234;DHT22;60776;51.702;7.462;2023-07-13T00:42:03;20.50;99.90
59234;DHT22;60776;51.702;7.462;2023-07-13T00:44:32;20.50;99.90
59234;DHT22;60776;51.702;7.462;2023-07-13T00:46:57;20.40;99.90
59234;DHT22;60776;51.702;7.462;2023-07-13T00:49:26;20.40;99.90
59234;DHT22;60776;51.702;7.462;2023-07-13T00:52:07;20.30;99.90
59234;DHT22;60776;51.702;7.462;2023-07-13T00:54:39;20.20;99.90
59234;DHT22;60776;51.702;7.462;2023-07-13T00:57:18;20.10;99.90
59234;DHT22;60776;51.702;7.462;2023-07-13T00:59:49;20.00;99.90
59234;DHT22;60776;51.702;7.462;2023-07-13T01:02:18;19.80;99.90
59234;DHT22;60776;51.702;7.462;2023-07-13T01:04:43;19.80;99.90
59234;DHT22;60776;51.702;7.462;2023-07-13T01:07:12;19.60;99.90
59234;DHT22;60776;51.702;7.462;2023-07-13T01:09:39;19.60;99.90
59234;DHT22;60776;51.702;7.462;2023-07-13T01:12:05;19.50;99.90
59234;DHT22;60776;51.702;7.462;2023-07-13T01:14:33;19.40;99.90
59234;DHT22;60776;51.702;7.462;2023-07-13T01:16:59;19.30;99.90
59234;DHT22;60776;51.702;7.462;2023-07-13T01:19:44;19.20;99.90
59234;DHT22;60776;51.702;7.462;2023-07-13T01:22:15;19.20;99.90
59234;DHT22;60776;51.702;7.462;2023-07-13T01:24:44;19.20;99.90
59234;DHT22;60776;51.702;7.462;2023-07-13T01:27:17;19.10;99.90
59234;DHT22;60776;51.702;7.462;2023-07-13T01:29:44;19.00;99.90
59234;DHT22;60776;51.702;7.462;2023-07-13T01:32:23;19.00;99.90
59234;DHT22;60776;51.702;7.462;2023-07-13T01:34:50;19.00;99.90
59234;DHT22;60776;51.702;7.462;2023-07-13T01:37:16;19.00;99.90
59234;DHT22;60776;51.702;7.462;2023-07-13T01:39:42;18.90;99.90
59234;DHT22;60776;51.702;7.462;2023-07-13T01:42:08;18.90;99.90
59234;DHT22;60776;51.702;7.462;2023-07-13T01:44:34;18.80;99.90
59234;DHT22;60776;51.702;7.462;2023-07-13T01:47:00;18.70;99.90
59234;DHT22;60776;51.702;7.462;2023-07-13T01:49:25;18.70;99.90
59234;DHT22;60776;51.702;7.462;2023-07-13T01:51:53;18.70;99.90
59234;DHT22;60776;51.702;7.462;2023-07-13T01:54:19;18.60;99.90
59234;DHT22;60776;51.702;7.462;2023-07-13T01:56:47;18.60;99.90
59234;DHT22;60776;51.702;7.462;2023-07-13T01:59:12;18.50;99.90
59234;DHT22;60776;51.702;7.462;2023-07-13T02:01:38;18.50;99.90
59234;DHT22;60776;51.702;7.462;2023-07-13T02:04:04;18.50;99.90
59234;DHT22;60776;51.702;7.462;2023-07-13T02:06:29;18.50;99.90
59234;DHT22;60776;51.702;7.462;2023-07-13T02:08:55;18.50;99.90
59234;DHT22;60776;51.702;7.462;2023-07-13T02:11:21;18.40;99.90
59234;DHT22;60776;51.702;7.462;2023-07-13T02:13:47;18.40;99.90
59234;DHT22;60776;51.702;7.462;2023-07-13T02:16:12;18.30;99.90
59234;DHT22;60776;51.702;7.462;2023-07-13T02:18:38;18.30;99.90
59234;DHT22;60776;51.702;7.462;2023-07-13T02:21:04;18.30;99.90
59234;DHT22;60776;51.702;7.462;2023-07-13T02:23:30;18.30;99.90
59234;DHT22;60776;51.702;7.462;2023-07-13T02:25:56;18.20;99.90
59234;DHT22;60776;51.702;7.462;2023-07-13T02:28:22;18.10;99.90
59234;DHT22;60776;51.702;7.462;2023-07-13T02:30:48;18.10;99.90
59234;DHT22;60776;51.702;7.462;2023-07-13T02:33:14;18.10;99.90
59234;DHT22;60776;51.702;7.462;2023-07-13T02:35:40;18.00;99.90
59234;DHT22;60776;51.702;7.462;2023-07-13T02:38:06;18.00;99.90
59234;DHT22;60776;51.702;7.462;2023-07-13T02:40:32;18.00;99.90
59234;DHT22;60776;51.702;7.462;2023-07-13T02:43:01;18.00;99.90
59234;DHT22;60776;51.702;7.462;2023-07-13T02:45:28;18.00;99.90
59234;DHT22;60776;51.702;7.462;2023-07-13T02:47:53;18.00;99.90
59234;DHT22;60776;51.702;7.462;2023-07-13T02:50:19;18.00;99.90
59234;DHT22;60776;51.702;7.462;2023-07-13T02:52:45;17.90;99.90
59234;DHT22;60776;51.702;7.462;2023-07-13T02:55:10;17.90;99.90
59234;DHT22;60776;51.702;7.462;2023-07-13T02:57:36;17.80;99.90
59234;DHT22;60776;51.702;7.462;2023-07-13T03:00:04;17.80;99.90
59234;DHT22;60776;51.702;7.462;2023-07-13T03:02:33;17.80;99.90
59234;DHT22;60776;51.702;7.462;2023-07-13T03:05:00;17.80;99.90
59234;DHT22;60776;51.702;7.462;2023-07-13T03:07:25;17.80;99.90
59234;DHT22;60776;51.702;7.462;2023-07-13T03:09:58;17.70;99.90
59234;DHT22;60776;51.702;7.462;2023-07-13T03:12:24;17.70;99.90
59234;DHT22;60776;51.702;7.462;2023-07-13T03:14:51;17.70;99.90
59234;DHT22;60776;51.702;7.462;2023-07-13T03:17:16;17.60;99.90
59234;DHT22;60776;51.702;7.462;2023-07-13T03:19:42;17.60;99.90
59234;DHT22;60776;51.702;7.462;2023-07-13T03:22:09;17.60;99.90
59234;DHT22;60776;51.702;7.462;2023-07-13T03:24:35;17.60;99.90
59234;DHT22;60776;51.702;7.462;2023-07-13T03:27:03;17.60;99.90
59234;DHT22;60776;51.702;7.462;2023-07-13T03:29:29;17.50;99.90
59234;DHT22;60776;51.702;7.462;2023-07-13T03:31:55;17.50;99.90
59234;DHT22;60776;51.702;7.462;2023-07-13T03:34:20;17.50;99.90
59234;DHT22;60776;51.702;7.462;2023-07-13T03:36:46;17.60;99.90
59234;DHT22;60776;51.702;7.462;2023-07-13T03:39:12;17.50;99.90
59234;DHT22;60776;51.702;7.462;2023-07-13T03:41:37;17.50;99.90
59234;DHT22;60776;51.702;7.462;2023-07-13T03:44:03;17.50;99.90
59234;DHT22;60776;51.702;7.462;2023-07-13T03:46:32;17.50;99.90
59234;DHT22;60776;51.702;7.462;2023-07-13T03:48:59;17.50;99.90
59234;DHT22;60776;51.702;7.462;2023-07-13T03:51:27;17.70;99.90
59234;DHT22;60776;51.702;7.462;2023-07-13T03:53:53;17.80;99.90
59234;DHT22;60776;51.702;7.462;2023-07-13T03:56:18;18.10;99.90
59234;DHT22;60776;51.702;7.462;2023-07-13T03:58:47;18.30;99.90
59234;DHT22;60776;51.702;7.462;2023-07-13T04:01:14;18.70;99.90
59234;DHT22;60776;51.702;7.462;2023-07-13T04:03:41;18.90;99.90
59234;DHT22;60776;51.702;7.462;2023-07-13T04:06:20;19.30;99.90
59234;DHT22;60776;51.702;7.462;2023-07-13T04:08:49;19.60;99.90
59234;DHT22;60776;51.702;7.462;2023-07-13T04:11:16;19.90;99.90
59234;DHT22;60776;51.702;7.462;2023-07-13T04:13:42;20.20;99.90
59234;DHT22;60776;51.702;7.462;2023-07-13T04:16:07;20.60;99.90
59234;DHT22;60776;51.702;7.462;2023-07-13T04:18:33;20.90;99.90
59234;DHT22;60776;51.702;7.462;2023-07-13T04:20:59;21.20;99.90
59234;DHT22;60776;51.702;7.462;2023-07-13T04:23:24;21.60;99.90
59234;DHT22;60776;51.702;7.462;2023-07-13T04:25:52;21.90;99.90
59234;DHT22;60776;51.702;7.462;2023-07-13T04:28:22;22.30;99.90
59234;DHT22;60776;51.702;7.462;2023-07-13T04:30:49;22.60;99.90
59234;DHT22;60776;51.702;7.462;2023-07-13T04:33:15;22.90;99.90
59234;DHT22;60776;51.702;7.462;2023-07-13T04:35:43;23.20;99.90
59234;DHT22;60776;51.702;7.462;2023-07-13T04:38:12;23.60;99.80
59234;DHT22;60776;51.702;7.462;2023-07-13T04:40:37;24.00;97.30
59234;DHT22;60776;51.702;7.462;2023-07-13T04:43:03;24.10;94.60
59234;DHT22;60776;51.702;7.462;2023-07-13T04:45:29;24.20;93.70
59234;DHT22;60776;51.702;7.462;2023-07-13T04:47:56;24.50;92.50
59234;DHT22;60776;51.702;7.462;2023-07-13T04:50:22;24.80;90.60
59234;DHT22;60776;51.702;7.462;2023-07-13T04:52:52;24.90;89.40
59234;DHT22;60776;51.702;7.462;2023-07-13T04:55:18;24.90;86.80
59234;DHT22;60776;51.702;7.462;2023-07-13T04:57:45;24.80;85.10
59234;DHT22;60776;51.702;7.462;2023-07-13T05:00:11;24.40;84.60
59234;DHT22;60776;51.702;7.462;2023-07-13T05:02:38;24.70;86.70
59234;DHT22;60776;51.702;7.462;2023-07-13T05:05:05;25.20;86.40
59234;DHT22;60776;51.702;7.462;2023-07-13T05:07:31;25.60;84.10
59234;DHT22;60776;51.702;7.462;2023-07-13T05:09:59;25.80;79.40
59234;DHT22;60776;51.702;7.462;2023-07-13T05:12:25;25.40;77.30
59234;DHT22;60776;51.702;7.462;2023-07-13T05:14:51;24.90;78.60
59234;DHT22;60776;51.702;7.462;2023-07-13T05:17:17;24.90;80.90
59234;DHT22;60776;51.702;7.462;2023-07-13T05:19:42;25.40;82.00
59234;DHT22;60776;51.702;7.462;2023-07-13T05:22:08;25.30;78.60
59234;DHT22;60776;51.702;7.462;2023-07-13T05:24:34;24.90;78.80
59234;DHT22;60776;51.702;7.462;2023-07-13T05:27:00;24.40;80.70
59234;DHT22;60776;51.702;7.462;2023-07-13T05:29:25;24.00;82.30
59234;DHT22;60776;51.702;7.462;2023-07-13T05:31:51;23.50;83.20
59234;DHT22;60776;51.702;7.462;2023-07-13T05:34:17;23.00;85.60
59234;DHT22;60776;51.702;7.462;2023-07-13T05:36:42;22.70;88.50
59234;DHT22;60776;51.702;7.462;2023-07-13T05:39:08;22.50;91.30
59234;DHT22;60776;51.702;7.462;2023-07-13T05:41:35;22.30;92.70
59234;DHT22;60776;51.702;7.462;2023-07-13T05:44:00;22.10;94.60
59234;DHT22;60776;51.702;7.462;2023-07-13T05:46:26;22.00;95.60
59234;DHT22;60776;51.702;7.462;2023-07-13T05:48:52;22.00;96.80
59234;DHT22;60776;51.702;7.462;2023-07-13T05:51:18;21.80;97.90
59234;DHT22;60776;51.702;7.462;2023-07-13T05:53:43;21.80;99.20
59234;DHT22;60776;51.702;7.462;2023-07-13T05:56:09;21.80;99.60
59234;DHT22;60776;51.702;7.462;2023-07-13T05:58:37;22.00;99.90
59234;DHT22;60776;51.702;7.462;2023-07-13T06:01:19;22.80;99.90
59234;DHT22;60776;51.702;7.462;2023-07-13T06:03:46;24.50;97.20
59234;DHT22;60776;51.702;7.462;2023-07-13T06:06:12;26.30;94.30
59234;DHT22;60776;51.702;7.462;2023-07-13T06:08:38;28.00;87.60
59234;DHT22;60776;51.702;7.462;2023-07-13T06:13:33;30.50;64.40
59234;DHT22;60776;51.702;7.462;2023-07-13T06:16:06;31.30;60.90
59234;DHT22;60776;51.702;7.462;2023-07-13T06:18:35;32.10;58.30
59234;DHT22;60776;51.702;7.462;2023-07-13T06:21:10;33.00;55.00
59234;DHT22;60776;51.702;7.462;2023-07-13T06:23:39;33.70;52.70
59234;DHT22;60776;51.702;7.462;2023-07-13T06:26:12;34.10;50.80
59234;DHT22;60776;51.702;7.462;2023-07-13T06:28:41;34.50;48.50
59234;DHT22;60776;51.702;7.462;2023-07-13T06:31:16;34.90;48.50
59234;DHT22;60776;51.702;7.462;2023-07-13T06:33:44;35.20;46.40
59234;DHT22;60776;51.702;7.462;2023-07-13T06:36:12;35.40;46.30
59234;DHT22;60776;51.702;7.462;2023-07-13T06:38:38;35.50;46.00
59234;DHT22;60776;51.702;7.462;2023-07-13T06:41:06;35.60;45.20
59234;DHT22;60776;51.702;7.462;2023-07-13T06:43:33;35.20;44.90
59234;DHT22;60776;51.702;7.462;2023-07-13T06:46:04;35.10;45.10
59234;DHT22;60776;51.702;7.462;2023-07-13T06:48:30;34.60;45.60
59234;DHT22;60776;51.702;7.462;2023-07-13T06:50:56;34.60;46.30
59234;DHT22;60776;51.702;7.462;2023-07-13T06:53:24;35.20;45.90
59234;DHT22;60776;51.702;7.462;2023-07-13T06:55:57;35.80;44.90
59234;DHT22;60776;51.702;7.462;2023-07-13T06:58:30;36.10;43.80
59234;DHT22;60776;51.702;7.462;2023-07-13T07:00:59;36.10;42.60
59234;DHT22;60776;51.702;7.462;2023-07-13T07:03:32;35.80;42.40
59234;DHT22;60776;51.702;7.462;2023-07-13T07:06:19;35.20;42.80
59234;DHT22;60776;51.702;7.462;2023-07-13T07:08:47;35.30;44.10
59234;DHT22;60776;51.702;7.462;2023-07-13T07:11:24;36.00;43.70
59234;DHT22;60776;51.702;7.462;2023-07-13T07:13:51;36.80;43.00
59234;DHT22;60776;51.702;7.462;2023-07-13T07:16:25;37.60;42.30
59234;DHT22;60776;51.702;7.462;2023-07-13T07:18:51;37.10;41.20
59234;DHT22;60776;51.702;7.462;2023-07-13T07:21:19;37.30;41.50
59234;DHT22;60776;51.702;7.462;2023-07-13T07:23:56;36.90;41.20
59234;DHT22;60776;51.702;7.462;2023-07-13T07:26:29;37.30;40.60
59234;DHT22;60776;51.702;7.462;2023-07-13T07:28:57;37.70;41.00
59234;DHT22;60776;51.702;7.462;2023-07-13T07:31:33;38.30;39.40
59234;DHT22;60776;51.702;7.462;2023-07-13T07:34:01;38.90;39.40
59234;DHT22;60776;51.702;7.462;2023-07-13T07:36:27;39.40;39.10
59234;DHT22;60776;51.702;7.462;2023-07-13T07:38:55;39.70;38.10
59234;DHT22;60776;51.702;7.462;2023-07-13T07:41:20;40.30;38.00
59234;DHT22;60776;51.702;7.462;2023-07-13T07:43:55;40.30;37.00
59234;DHT22;60776;51.702;7.462;2023-07-13T07:46:23;40.20;36.90
59234;DHT22;60776;51.702;7.462;2023-07-13T07:48:52;40.00;37.20
59234;DHT22;60776;51.702;7.462;2023-07-13T07:51:22;40.40;37.70
59234;DHT22;60776;51.702;7.462;2023-07-13T07:53:58;41.00;36.50
59234;DHT22;60776;51.702;7.462;2023-07-13T07:56:33;41.00;36.20
59234;DHT22;60776;51.702;7.462;2023-07-13T07:59:01;41.00;36.20
59234;DHT22;60776;51.702;7.462;2023-07-13T08:01:36;41.20;35.70
59234;DHT22;60776;51.702;7.462;2023-07-13T08:04:04;41.50;35.20
59234;DHT22;60776;51.702;7.462;2023-07-13T08:06:35;40.80;35.10
59234;DHT22;60776;51.702;7.462;2023-07-13T08:09:03;39.80;35.50
59234;DHT22;60776;51.702;7.462;2023-07-13T08:11:42;38.90;36.20
59234;DHT22;60776;51.702;7.462;2023-07-13T08:14:10;38.80;37.60
59234;DHT22;60776;51.702;7.462;2023-07-13T08:16:43;39.50;37.40
59234;DHT22;60776;51.702;7.462;2023-07-13T08:19:12;40.20;36.40
59234;DHT22;60776;51.702;7.462;2023-07-13T08:21:42;41.00;36.70
59234;DHT22;60776;51.702;7.462;2023-07-13T08:24:09;42.10;35.60
59234;DHT22;60776;51.702;7.462;2023-07-13T08:26:46;42.00;34.10
59234;DHT22;60776;51.702;7.462;2023-07-13T08:29:20;41.30;34.50
59234;DHT22;60776;51.702;7.462;2023-07-13T08:31:49;41.50;35.20
59234;DHT22;60776;51.702;7.462;2023-07-13T08:34:22;42.20;35.40
59234;DHT22;60776;51.702;7.462;2023-07-13T08:36:50;42.90;34.30
59234;DHT22;60776;51.702;7.462;2023-07-13T08:39:16;43.50;33.00
59234;DHT22;60776;51.702;7.462;2023-07-13T08:41:43;44.00;33.40
59234;DHT22;60776;51.702;7.462;2023-07-13T08:44:27;44.50;32.60
59234;DHT22;60776;51.702;7.462;2023-07-13T08:47:01;44.90;31.70
59234;DHT22;60776;51.702;7.462;2023-07-13T08:49:30;44.40;31.10
59234;DHT22;60776;51.702;7.462;2023-07-13T08:52:08;43.90;31.50
59234;DHT22;60776;51.702;7.462;2023-07-13T08:54:45;44.00;32.40
59234;DHT22;60776;51.702;7.462;2023-07-13T08:57:17;43.90;31.80
59234;DHT22;60776;51.702;7.462;2023-07-13T08:59:44;43.90;31.80
59234;DHT22;60776;51.702;7.462;2023-07-13T09:05:14;44.80;31.40
59234;DHT22;60776;51.702;7.462;2023-07-13T09:10:47;43.20;31.00
59234;DHT22;60776;51.702;7.462;2023-07-13T09:13:28;41.00;32.70
59234;DHT22;60776;51.702;7.462;2023-07-13T09:15:59;41.10;34.40
59234;DHT22;60776;51.702;7.462;2023-07-13T09:18:40;42.40;33.70
59234;DHT22;60776;51.702;7.462;2023-07-13T09:23:39;43.60;32.50
59234;DHT22;60776;51.702;7.462;2023-07-13T09:26:16;44.40;31.90
59234;DHT22;60776;51.702;7.462;2023-07-13T09:28:45;44.10;30.40
59234;DHT22;60776;51.702;7.462;2023-07-13T09:31:26;43.90;30.70
59234;DHT22;60776;51.702;7.462;2023-07-13T09:33:55;44.00;30.40
59234;DHT22;60776;51.702;7.462;2023-07-13T09:36:23;44.40;30.50
59234;DHT22;60776;51.702;7.462;2023-07-13T09:39:02;44.70;30.40
59234;DHT22;60776;51.702;7.462;2023-07-13T09:44:35;45.40;29.60
59234;DHT22;60776;51.702;7.462;2023-07-13T09:47:02;45.20;29.90
59234;DHT22;60776;51.702;7.462;2023-07-13T09:49:33;43.80;29.60
59234;DHT22;60776;51.702;7.462;2023-07-13T09:52:05;42.00;30.60
59234;DHT22;60776;51.702;7.462;2023-07-13T09:54:34;40.40;32.40
59234;DHT22;60776;51.702;7.462;2023-07-13T09:57:01;40.90;33.80
59234;DHT22;60776;51.702;7.462;2023-07-13T09:59:34;40.50;32.80
59234;DHT22;60776;51.702;7.462;2023-07-13T10:02:30;39.70;33.90
59234;DHT22;60776;51.702;7.462;2023-07-13T10:05:10;39.10;34.40
59234;DHT22;60776;51.702;7.462;2023-07-13T10:07:43;38.60;34.90
59234;DHT22;60776;51.702;7.462;2023-07-13T10:10:29;38.40;35.40
59234;DHT22;60776;51.702;7.462;2023-07-13T10:13:03;38.00;35.60
59234;DHT22;60776;51.702;7.462;2023-07-13T10:15:30;37.40;36.70
59234;DHT22;60776;51.702;7.462;2023-07-13T10:17:59;37.50;37.00
59234;DHT22;60776;51.702;7.462;2023-07-13T10:20:35;36.90;37.00
59234;DHT22;60776;51.702;7.462;2023-07-13T10:23:05;36.40;38.00
59234;DHT22;60776;51.702;7.462;2023-07-13T10:25:39;35.50;38.30
59234;DHT22;60776;51.702;7.462;2023-07-13T10:28:25;34.90;39.40
59234;DHT22;60776;51.702;7.462;2023-07-13T10:30:56;34.40;39.80
59234;DHT22;60776;51.702;7.462;2023-07-13T10:33:23;34.00;40.60
59234;DHT22;60776;51.702;7.462;2023-07-13T10:36:12;35.30;40.90
59234;DHT22;60776;51.702;7.462;2023-07-13T10:38:39;37.00;38.60
59234;DHT22;60776;51.702;7.462;2023-07-13T10:41:16;38.20;37.50
59234;DHT22;60776;51.702;7.462;2023-07-13T10:43:46;38.40;36.00
59234;DHT22;60776;51.702;7.462;2023-07-13T10:46:14;37.80;35.70
59234;DHT22;60776;51.702;7.462;2023-07-13T10:48:54;36.90;36.80
59234;DHT22;60776;51.702;7.462;2023-07-13T10:51:21;36.80;37.00
59234;DHT22;60776;51.702;7.462;2023-07-13T10:54:10;36.30;37.80
59234;DHT22;60776;51.702;7.462;2023-07-13T10:56:38;35.60;38.50
59234;DHT22;60776;51.702;7.462;2023-07-13T10:59:26;35.00;39.00
59234;DHT22;60776;51.702;7.462;2023-07-13T11:01:57;34.10;40.10
59234;DHT22;60776;51.702;7.462;2023-07-13T11:04:28;33.40;40.90
59234;DHT22;60776;51.702;7.462;2023-07-13T11:06:59;33.10;42.00
59234;DHT22;60776;51.702;7.462;2023-07-13T11:09:38;33.10;42.30
59234;DHT22;60776;51.702;7.462;2023-07-13T11:12:09;32.80;42.60
59234;DHT22;60776;51.702;7.462;2023-07-13T11:33:23;43.20;32.10
59234;DHT22;60776;51.702;7.462;2023-07-13T11:38:38;42.80;31.30
59234;DHT22;60776;51.702;7.462;2023-07-13T11:41:26;43.10;30.70
59234;DHT22;60776;51.702;7.462;2023-07-13T11:43:56;41.50;31.00
59234;DHT22;60776;51.702;7.462;2023-07-13T11:46:28;39.80;32.30
59234;DHT22;60776;51.702;7.462;2023-07-13T11:48:54;40.00;33.90
59234;DHT22;60776;51.702;7.462;2023-07-13T11:51:26;40.80;33.30
59234;DHT22;60776;51.702;7.462;2023-07-13T11:53:54;41.20;33.40
59234;DHT22;60776;51.702;7.462;2023-07-13T11:56:22;41.20;32.90
59234;DHT22;60776;51.702;7.462;2023-07-13T11:58:51;40.30;32.10
59234;DHT22;60776;51.702;7.462;2023-07-13T12:01:28;39.00;32.80
59234;DHT22;60776;51.702;7.462;2023-07-13T12:04:00;37.50;34.20
59234;DHT22;60776;51.702;7.462;2023-07-13T12:09:00;35.70;37.00
59234;DHT22;60776;51.702;7.462;2023-07-13T12:11:27;35.60;37.20
59234;DHT22;60776;51.702;7.462;2023-07-13T12:13:53;35.70;38.00
59234;DHT22;60776;51.702;7.462;2023-07-13T12:16:31;36.40;37.60
59234;DHT22;60776;51.702;7.462;2023-07-13T12:18:59;36.20;37.30
59234;DHT22;60776;51.702;7.462;2023-07-13T12:21:34;35.40;38.00
59234;DHT22;60776;51.702;7.462;2023-07-13T12:24:01;36.30;38.40
59234;DHT22;60776;51.702;7.462;2023-07-13T12:26:30;37.40;36.50
59234;DHT22;60776;51.702;7.462;2023-07-13T12:28:58;38.30;35.70
59234;DHT22;60776;51.702;7.462;2023-07-13T12:31:36;39.50;34.00
59234;DHT22;60776;51.702;7.462;2023-07-13T12:34:10;39.80;33.20
59234;DHT22;60776;51.702;7.462;2023-07-13T12:39:22;39.90;33.10
59234;DHT22;60776;51.702;7.462;2023-07-13T12:41:50;39.00;33.00
59234;DHT22;60776;51.702;7.462;2023-07-13T12:44:29;37.90;33.60
59234;DHT22;60776;51.702;7.462;2023-07-13T12:46:58;37.00;34.60
59234;DHT22;60776;51.702;7.462;2023-07-13T12:49:28;36.50;34.80
59234;DHT22;60776;51.702;7.462;2023-07-13T12:51:59;36.70;36.10
59234;DHT22;60776;51.702;7.462;2023-07-13T12:54:26;36.50;35.10
59234;DHT22;60776;51.702;7.462;2023-07-13T12:56:54;35.90;35.30
59234;DHT22;60776;51.702;7.462;2023-07-13T12:59:22;35.40;36.00
59234;DHT22;60776;51.702;7.462;2023-07-13T13:01:49;35.20;36.70
59234;DHT22;60776;51.702;7.462;2023-07-13T13:04:15;34.70;37.00
59234;DHT22;60776;51.702;7.462;2023-07-13T13:06:42;34.10;37.60
59234;DHT22;60776;51.702;7.462;2023-07-13T13:09:14;33.30;38.30
59234;DHT22;60776;51.702;7.462;2023-07-13T13:11:40;32.90;39.00
59234;DHT22;60776;51.702;7.462;2023-07-13T13:14:08;32.70;39.50
59234;DHT22;60776;51.702;7.462;2023-07-13T13:16:55;32.60;40.10
59234;DHT22;60776;51.702;7.462;2023-07-13T13:19:28;32.20;40.20
59234;DHT22;60776;51.702;7.462;2023-07-13T13:22:02;31.60;40.20
59234;DHT22;60776;51.702;7.462;2023-07-13T13:24:30;31.20;41.10
59234;DHT22;60776;51.702;7.462;2023-07-13T13:27:03;30.80;43.50
59234;DHT22;60776;51.702;7.462;2023-07-13T13:29:39;30.20;46.00
59234;DHT22;60776;51.702;7.462;2023-07-13T13:32:09;29.20;50.60
59234;DHT22;60776;51.702;7.462;2023-07-13T13:34:35;28.30;52.50
59234;DHT22;60776;51.702;7.462;2023-07-13T13:37:03;27.40;54.50
59234;DHT22;60776;51.702;7.462;2023-07-13T13:39:37;26.70;57.10
59234;DHT22;60776;51.702;7.462;2023-07-13T13:42:11;25.90;58.80
59234;DHT22;60776;51.702;7.462;2023-07-13T13:44:39;25.20;61.30
59234;DHT22;60776;51.702;7.462;2023-07-13T13:47:30;24.60;62.00
59234;DHT22;60776;51.702;7.462;2023-07-13T13:49:59;24.30;64.40
59234;DHT22;60776;51.702;7.462;2023-07-13T13:52:25;24.00;64.20
59234;DHT22;60776;51.702;7.462;2023-07-13T13:55:01;23.90;64.50
59234;DHT22;60776;51.702;7.462;2023-07-13T13:57:29;23.90;65.30
59234;DHT22;60776;51.702;7.462;2023-07-13T13:59:56;23.80;65.30
59234;DHT22;60776;51.702;7.462;2023-07-13T14:02:25;23.70;65.70
59234;DHT22;60776;51.702;7.462;2023-07-13T14:04:55;23.60;67.20
59234;DHT22;60776;51.702;7.462;2023-07-13T14:07:22;23.70;68.60
59234;DHT22;60776;51.702;7.462;2023-07-13T14:09:47;23.70;69.30
59234;DHT22;60776;51.702;7.462;2023-07-13T14:12:13;23.80;70.70
59234;DHT22;60776;51.702;7.462;2023-07-13T14:14:41;24.00;72.90
59234;DHT22;60776;51.702;7.462;2023-07-13T14:17:19;24.10;73.90
59234;DHT22;60776;51.702;7.462;2023-07-13T14:19:50;24.10;74.00
59234;DHT22;60776;51.702;7.462;2023-07-13T14:22:17;24.20;73.30
59234;DHT22;60776;51.702;7.462;2023-07-13T14:24:54;24.20;75.20
59234;DHT22;60776;51.702;7.462;2023-07-13T14:27:21;24.30;79.10
59234;DHT22;60776;51.702;7.462;2023-07-13T14:29:49;24.40;79.80
59234;DHT22;60776;51.702;7.462;2023-07-13T14:32:15;24.50;81.20
59234;DHT22;60776;51.702;7.462;2023-07-13T14:34:40;24.50;81.10
59234;DHT22;60776;51.702;7.462;2023-07-13T14:37:12;24.60;80.90
59234;DHT22;60776;51.702;7.462;2023-07-13T14:39:41;24.60;85.30
59234;DHT22;60776;51.702;7.462;2023-07-13T14:42:15;24.60;87.00
59234;DHT22;60776;51.702;7.462;2023-07-13T14:44:43;24.60;88.30
59234;DHT22;60776;51.702;7.462;2023-07-13T14:47:16;24.60;89.00
59234;DHT22;60776;51.702;7.462;2023-07-13T14:49:45;24.60;90.30
59234;DHT22;60776;51.702;7.462;2023-07-13T14:52:21;24.60;89.10
59234;DHT22;60776;51.702;7.462;2023-07-13T14:54:48;24.50;87.90
59234;DHT22;60776;51.702;7.462;2023-07-13T14:57:24;24.60;89.10
59234;DHT22;60776;51.702;7.462;2023-07-13T14:59:52;24.50;90.20
59234;DHT22;60776;51.702;7.462;2023-07-13T15:02:32;24.50;91.90
59234;DHT22;60776;51.702;7.462;2023-07-13T15:04:59;24.40;93.50
59234;DHT22;60776;51.702;7.462;2023-07-13T15:07:25;24.40;93.70
59234;DHT22;60776;51.702;7.462;2023-07-13T15:09:59;24.30;94.40
59234;DHT22;60776;51.702;7.462;2023-07-13T15:12:32;24.10;95.90
59234;DHT22;60776;51.702;7.462;2023-07-13T15:14:59;24.10;93.90
59234;DHT22;60776;51.702;7.462;2023-07-13T15:17:43;24.00;95.00
59234;DHT22;60776;51.702;7.462;2023-07-13T15:20:26;24.00;98.10
59234;DHT22;60776;51.702;7.462;2023-07-13T15:23:04;24.20;98.70
59234;DHT22;60776;51.702;7.462;2023-07-13T15:25:36;24.30;99.00
59234;DHT22;60776;51.702;7.462;2023-07-13T15:28:09;24.40;96.90
59234;DHT22;60776;51.702;7.462;2023-07-13T15:33:44;24.80;94.60
59234;DHT22;60776;51.702;7.462;2023-07-13T15:36:03;25.10;94.00
59234;DHT22;60776;51.702;7.462;2023-07-13T15:38:30;25.50;93.20
59234;DHT22;60776;51.702;7.462;2023-07-13T15:40:59;25.90;93.10
59234;DHT22;60776;51.702;7.462;2023-07-13T15:43:32;26.20;87.70
59234;DHT22;60776;51.702;7.462;2023-07-13T15:46:00;26.40;83.70
59234;DHT22;60776;51.702;7.462;2023-07-13T15:48:26;26.60;82.30
59234;DHT22;60776;51.702;7.462;2023-07-13T15:51:09;26.70;80.70
59234;DHT22;60776;51.702;7.462;2023-07-13T15:53:39;26.60;77.40
59234;DHT22;60776;51.702;7.462;2023-07-13T15:56:28;26.60;78.30
59234;DHT22;60776;51.702;7.462;2023-07-13T15:58:55;26.50;77.90
59234;DHT22;60776;51.702;7.462;2023-07-13T16:01:24;26.30;76.80
59234;DHT22;60776;51.702;7.462;2023-07-13T16:03:49;26.00;77.50
59234;DHT22;60776;51.702;7.462;2023-07-13T16:06:26;25.80;78.60
59234;DHT22;60776;51.702;7.462;2023-07-13T16:08:53;25.50;80.30
59234;DHT22;60776;51.702;7.462;2023-07-13T16:11:32;25.30;83.40
59234;DHT22;60776;51.702;7.462;2023-07-13T16:14:05;25.20;86.60
59234;DHT22;60776;51.702;7.462;2023-07-13T16:16:35;25.30;88.80
59234;DHT22;60776;51.702;7.462;2023-07-13T16:19:04;25.40;88.60
59234;DHT22;60776;51.702;7.462;2023-07-13T16:21:34;25.50;88.80
59234;DHT22;60776;51.702;7.462;2023-07-13T16:24:01;25.50;90.00
59234;DHT22;60776;51.702;7.462;2023-07-13T16:26:38;25.50;90.00
59234;DHT22;60776;51.702;7.462;2023-07-13T16:29:18;25.60;90.90